createdAt,value
2023-04-22T13:18:37.992Z,93204.47
2023-04-22T13:21:05.730Z,93204.84
2023-04-22T13:23:32.565Z,93203.81
2023-04-22T13:25:58.883Z,93203.84
2023-04-22T13:28:30.261Z,93193.47
2023-04-22T13:30:56.546Z,93195.38
2023-04-22T13:33:22.899Z,93196.53
2023-04-22T13:35:49.224Z,93193.38
2023-04-22T13:38:15.547Z,93192.81
2023-04-22T13:40:41.838Z,93194.22
2023-04-22T13:43:09.171Z,93195.84
2023-04-22T13:45:35.822Z,93189.56
2023-04-22T13:48:02.296Z,93196.13
2023-04-22T13:50:42.827Z,93191.22
2023-04-22T13:53:10.228Z,93184.19
2023-04-22T13:55:37.118Z,93187.38
2023-04-22T13:58:05.390Z,93179.56
2023-04-22T14:00:33.792Z,93183.72
2023-04-22T14:03:00.420Z,93177.41
2023-04-22T14:05:27.166Z,93173.75
2023-04-22T14:07:53.975Z,93174.44
2023-04-22T14:10:29.540Z,93182.16
2023-04-22T14:12:55.973Z,93176.53
2023-04-22T14:15:22.516Z,93173.56
2023-04-22T14:17:49.495Z,93178.00
2023-04-22T14:20:16.092Z,93173.25
2023-04-22T14:22:48.593Z,93172.38
2023-04-22T14:25:14.950Z,93172.81
2023-04-22T14:27:41.307Z,93160.53
2023-04-22T14:30:08.431Z,93174.66
2023-04-22T14:32:35.117Z,93172.00
2023-04-22T14:35:01.627Z,93171.88
2023-04-22T14:37:28.091Z,93169.63
2023-04-22T14:39:54.418Z,93169.66
2023-04-22T14:42:20.871Z,93173.97
2023-04-22T14:44:47.184Z,93178.59
2023-04-22T14:47:13.476Z,93178.75
2023-04-22T14:49:40.002Z,93172.63
2023-04-22T14:52:06.933Z,93173.78
2023-04-22T14:54:33.332Z,93182.97
2023-04-22T14:56:59.742Z,93181.47
2023-04-22T14:59:26.234Z,93178.50
2023-04-22T15:01:52.568Z,93181.56
2023-04-22T15:04:19.277Z,93182.97
2023-04-22T15:06:45.838Z,93187.44
2023-04-22T15:09:12.300Z,93181.50
2023-04-22T15:11:38.591Z,93189.13
2023-04-22T15:14:04.941Z,93192.44
2023-04-22T15:16:31.466Z,93191.31
2023-04-22T15:18:57.940Z,93192.75
2023-04-22T15:21:24.282Z,93189.38
2023-04-22T15:23:50.673Z,93193.38
2023-04-22T15:26:17.006Z,93196.25
2023-04-22T15:28:43.336Z,93193.16
2023-04-22T15:31:09.689Z,93180.38
2023-04-22T15:33:36.541Z,93191.31
2023-04-22T15:36:04.102Z,93190.94
2023-04-22T15:38:31.422Z,93188.91
2023-04-22T15:41:02.728Z,93200.66
2023-04-22T15:43:38.425Z,93191.28
2023-04-22T15:46:08.534Z,93185.50
2023-04-22T15:48:35.012Z,93190.03
2023-04-22T15:51:01.326Z,93200.16
2023-04-22T15:53:27.621Z,93198.50
2023-04-22T15:55:53.954Z,93196.41
2023-04-22T15:58:20.298Z,93202.16
2023-04-22T16:00:46.675Z,93205.31
2023-04-22T16:03:13.211Z,93196.00
2023-04-22T16:05:39.619Z,93197.03
2023-04-22T16:08:05.912Z,93202.69
2023-04-22T16:10:32.234Z,93199.38
2023-04-22T16:12:58.557Z,93207.09
2023-04-22T16:15:26.199Z,93211.84
2023-04-22T16:17:52.734Z,93206.41
2023-04-22T16:20:19.315Z,93215.56
2023-04-22T16:22:45.606Z,93207.31
2023-04-22T16:25:14.924Z,93217.84
2023-04-22T16:27:41.229Z,93219.72
2023-04-22T16:30:07.834Z,93225.63
2023-04-22T16:32:34.152Z,93226.41
2023-04-22T16:35:28.134Z,93230.16
2023-04-22T16:37:54.417Z,93228.31
2023-04-22T16:40:20.920Z,93225.91
2023-04-22T16:42:48.262Z,93230.16
2023-04-22T16:45:14.554Z,93231.44
2023-04-22T16:47:40.982Z,93235.88
2023-04-22T16:50:10.293Z,93241.69
2023-04-22T16:52:36.609Z,93237.94
2023-04-22T16:55:03.297Z,93246.38
2023-04-22T16:57:29.561Z,93239.47
2023-04-22T16:59:55.973Z,93250.03
2023-04-22T17:02:22.438Z,93245.78
2023-04-22T17:04:48.907Z,93235.13
2023-04-22T17:07:15.502Z,93240.44
2023-04-22T17:09:42.285Z,93239.53
2023-04-22T17:12:08.887Z,93239.31
2023-04-22T17:14:35.208Z,93246.66
2023-04-22T17:17:01.498Z,93248.69
2023-04-22T17:19:28.009Z,93251.34
2023-04-22T17:21:54.344Z,93253.59
2023-04-22T17:24:22.265Z,93256.47
2023-04-22T17:26:48.814Z,93267.09
2023-04-22T17:29:16.114Z,93268.66
2023-04-22T17:31:42.536Z,93277.31
2023-04-22T17:34:09.165Z,93277.09
2023-04-22T17:36:35.626Z,93289.22
2023-04-22T17:39:01.942Z,93280.13
2023-04-22T17:41:28.244Z,93283.81
2023-04-22T17:43:54.884Z,93286.66
2023-04-22T17:46:21.210Z,93287.94
2023-04-22T17:48:47.584Z,93289.41
2023-04-22T17:51:13.892Z,93281.94
2023-04-22T17:53:41.761Z,93290.06
2023-04-22T17:56:08.772Z,93300.81
2023-04-22T17:58:38.412Z,93301.31
2023-04-22T18:01:06.030Z,93299.16
2023-04-22T18:03:32.872Z,93301.00
2023-04-22T18:05:59.671Z,93301.78
2023-04-22T18:08:26.060Z,93303.03
2023-04-22T18:10:52.834Z,93306.44
2023-04-22T18:13:19.297Z,93313.28
2023-04-22T18:15:45.710Z,93302.91
2023-04-22T18:18:12.065Z,93314.06
2023-04-22T18:20:38.395Z,93322.53
2023-04-22T18:23:05.967Z,93323.91
2023-04-22T18:25:40.729Z,93323.63
2023-04-22T18:28:09.097Z,93331.78
2023-04-22T18:31:01.587Z,93325.72
2023-04-22T18:33:38.429Z,93333.63
2023-04-22T18:36:26.003Z,93336.06
2023-04-22T18:41:50.285Z,93336.25
2023-04-22T18:47:38.372Z,93344.22
2023-04-22T18:53:36.225Z,93350.47
2023-04-22T19:03:17.867Z,93352.38
2023-04-22T19:06:04.668Z,93368.63
2023-04-22T19:08:34.179Z,93371.69
2023-04-22T19:11:01.639Z,93375.66
2023-04-22T19:13:31.505Z,93376.47
2023-04-22T19:16:23.629Z,93373.09
2023-04-22T19:19:17.678Z,93376.28
2023-04-22T19:21:57.982Z,93370.38
2023-04-22T19:24:36.523Z,93368.75
2023-04-22T19:27:05.762Z,93373.09
2023-04-22T19:29:32.299Z,93377.22
2023-04-22T19:32:05.750Z,93370.09
2023-04-22T19:34:32.332Z,93379.31
2023-04-22T19:36:58.715Z,93376.56
2023-04-22T19:39:31.503Z,93375.94
2023-04-22T19:41:58.535Z,93372.72
2023-04-22T19:44:30.499Z,93374.34
2023-04-22T19:46:57.058Z,93373.19
2023-04-22T19:49:23.747Z,93364.13
2023-04-22T19:51:58.323Z,93367.75
2023-04-22T19:54:27.896Z,93358.66
2023-04-22T19:56:55.057Z,93367.59
2023-04-22T19:59:22.800Z,93364.66
2023-04-22T20:01:49.366Z,93367.81
2023-04-22T20:04:24.145Z,93364.75
2023-04-22T20:06:51.836Z,93354.25
2023-04-22T20:09:19.215Z,93360.88
2023-04-22T20:11:46.107Z,93354.84
2023-04-22T20:14:19.016Z,93359.31
2023-04-22T20:17:06.186Z,93358.41
2023-04-22T20:19:41.133Z,93355.91
2023-04-22T20:29:02.610Z,93346.09
2023-04-22T20:31:40.307Z,93356.25
2023-04-22T20:34:09.340Z,93349.50
2023-04-22T20:36:37.115Z,93357.28
2023-04-22T20:39:05.732Z,93353.78
2023-04-22T20:42:10.648Z,93338.75
2023-04-22T20:45:04.233Z,93344.38
2023-04-22T20:58:46.074Z,93344.28
2023-04-22T21:01:16.135Z,93342.13
2023-04-22T21:03:46.859Z,93329.44
2023-04-22T21:06:13.532Z,93316.78
2023-04-22T21:08:40.100Z,93313.44
2023-04-22T21:11:07.019Z,93317.66
2023-04-22T21:13:33.538Z,93324.59
2023-04-22T21:16:00.156Z,93318.13
2023-04-22T21:18:27.970Z,93318.91
2023-04-22T21:20:56.194Z,93315.03
2023-04-22T21:23:27.764Z,93309.13
2023-04-22T21:25:59.276Z,93324.88
2023-04-22T21:28:28.119Z,93318.66
2023-04-22T21:30:54.988Z,93317.88
2023-04-22T21:33:21.302Z,93327.97
2023-04-22T21:35:47.806Z,93335.19
2023-04-22T21:38:16.316Z,93344.13
2023-04-22T21:40:42.856Z,93335.03
2023-04-22T21:43:09.161Z,93332.88
2023-04-22T21:45:35.824Z,93334.81
2023-04-22T21:48:03.884Z,93341.66
2023-04-22T21:50:31.125Z,93339.81
2023-04-22T21:52:57.710Z,93341.16
2023-04-22T21:55:28.005Z,93338.44
2023-04-22T21:57:54.395Z,93338.66
2023-04-22T22:00:20.727Z,93341.53
2023-04-22T22:02:47.875Z,93334.63
2023-04-22T22:05:15.156Z,93333.97
2023-04-22T22:07:49.613Z,93333.97
2023-04-22T22:10:20.567Z,93334.56
2023-04-22T22:12:47.058Z,93333.41
2023-04-22T22:15:13.761Z,93326.22
2023-04-22T22:17:40.321Z,93320.28
2023-04-22T22:20:18.122Z,93316.22
2023-04-22T22:22:44.470Z,93323.03
2023-04-22T22:25:12.040Z,93333.63
2023-04-22T22:27:40.804Z,93344.00
2023-04-22T22:30:08.077Z,93342.19
2023-04-22T22:32:35.225Z,93337.63
2023-04-22T22:35:01.596Z,93334.53
2023-04-22T22:37:28.954Z,93330.56
2023-04-22T22:39:56.463Z,93341.50
2023-04-22T22:42:22.758Z,93337.03
2023-04-22T22:44:49.084Z,93358.00
2023-04-22T22:47:17.477Z,93352.06
2023-04-22T22:49:44.353Z,93354.81
2023-04-22T22:52:11.727Z,93354.63
2023-04-22T22:54:39.225Z,93354.94
2023-04-22T22:57:06.392Z,93343.28
2023-04-22T22:59:33.300Z,93348.25
2023-04-22T23:02:00.283Z,93338.22
2023-04-22T23:04:27.544Z,93341.94
2023-04-22T23:06:54.479Z,93347.03
2023-04-22T23:09:21.116Z,93331.31
2023-04-22T23:11:55.345Z,93333.16
2023-04-22T23:14:26.657Z,93325.63
2023-04-22T23:16:53.048Z,93318.78
2023-04-22T23:19:19.543Z,93319.22
2023-04-22T23:21:46.274Z,93317.78
2023-04-22T23:24:13.609Z,93319.56
2023-04-22T23:26:40.342Z,93321.59
2023-04-22T23:29:07.823Z,93314.34
2023-04-22T23:31:34.708Z,93305.59
2023-04-22T23:34:04.697Z,93305.72
2023-04-22T23:36:33.502Z,93294.38
2023-04-22T23:39:00.026Z,93289.81
2023-04-22T23:41:26.356Z,93293.91
2023-04-22T23:43:52.650Z,93295.50
2023-04-22T23:46:19.056Z,93305.59
2023-04-22T23:48:45.563Z,93296.19
2023-04-22T23:51:16.059Z,93302.81
2023-04-22T23:53:42.822Z,93297.44
2023-04-22T23:56:09.538Z,93287.44
2023-04-22T23:58:36.353Z,93300.38
